Lagoa — CSMR — position and weather

sailwx.info

Track history (hours):
 
Tides and Currents Weather Stations Pressure Air Temp Water Temp Dewpoint Dewpoint Depression Visibility Wind Speed Wind Dir Waves Ship Positions

Lagoa

Last reported at 2017-Sep-25 03:16 UTC. Time now 2017-Sep-25 06:31 UTC.
Position N 31°44' W 013°47'.

Length 100 m; draft 4.9 m.

Type: Ship. MMSI: 255802850.

Date/timePositionNaut miles runAvg speedWind from/ knotsBaromVisibWave heightAir tempDewpointWater temp
2017-Sep-25 03:16N 31°44' W 013°47'414.1
2017-Sep-25 03:00N 31°40' W 013°49'1914.0
2017-Sep-25 01:41N 31°24' W 013°59'4213.9
2017-Sep-24 22:42N 30°47' W 014°22'313.6
2017-Sep-24 22:29N 30°45' W 014°23'7113.7
2017-Sep-24 17:17N 29°42' W 015°01'414.0
2017-Sep-24 17:00N 29°38' W 015°03'1114.0
2017-Sep-24 16:15N 29°29' W 015°09'313.9
2017-Sep-24 16:00N 29°26' W 015°10'713.9
2017-Sep-24 15:30N 29°19' W 015°14'713.9
2017-Sep-24 15:00N 29°13' W 015°18'714.1
2017-Sep-24 14:30N 29°07' W 015°22'714.0
2017-Sep-24 14:00N 29°01' W 015°26'1614.1
2017-Sep-24 12:54N 28°47' W 015°34'514.1
2017-Sep-24 12:30N 28°42' W 015°37'714.0
2017-Sep-24 12:00N 28°36' W 015°40'713.6
2017-Sep-24 11:30N 28°31' W 015°45'713.6
2017-Sep-24 11:00N 28°25' W 015°50'713.3
2017-Sep-24 10:30N 28°20' W 015°55'1012.8
2017-Sep-24 09:42N 28°12' W 016°02'413.0
2017-Sep-24 09:25N 28°10' W 016°05'712.6
2017-Sep-24 08:54N 28°05' W 016°10'812.1
2017-Sep-24 08:13N 27°58' W 016°15'412.0
2017-Sep-24 07:54N 27°54' W 016°16'611.7
2017-Sep-24 07:24N 27°48' W 016°18'611.4
2017-Sep-24 06:53N 27°42' W 016°19'611.3
2017-Sep-24 06:21N 27°37' W 016°20'611.2
2017-Sep-24 05:47N 27°30' W 016°22'1011.3
2017-Sep-24 04:52N 27°20' W 016°25'511.1
2017-Sep-24 04:23N 27°15' W 016°26'  
2017-Sep-21 00:03N 27°47' W 015°19'114.5
2017-Sep-20 23:59N 27°47' W 015°19'714.6
2017-Sep-20 23:30N 27°54' W 015°18'714.4
2017-Sep-20 23:00N 28°01' W 015°19'713.9
2017-Sep-20 22:30N 28°07' W 015°24'1 2.4
2017-Sep-20 21:58N 28°08' W 015°25'0 0.0
2017-Sep-20 21:19N 28°08' W 015°25'0 0.0
2017-Sep-20 20:49N 28°08' W 015°25'0 0.0
2017-Sep-20 20:19N 28°08' W 015°25'0 0.0
2017-Sep-20 19:52N 28°08' W 015°25'0 0.0
2017-Sep-20 19:22N 28°08' W 015°25'0 0.0
2017-Sep-20 18:52N 28°08' W 015°25'0 0.0
2017-Sep-20 18:22N 28°08' W 015°25'0 0.0
2017-Sep-20 17:52N 28°08' W 015°25'0 0.0
2017-Sep-20 17:10N 28°08' W 015°25'0 0.0
2017-Sep-20 16:55N 28°08' W 015°25'0 0.0
2017-Sep-20 16:25N 28°08' W 015°25'0 0.0
2017-Sep-20 15:55N 28°08' W 015°25'0 0.0
2017-Sep-20 15:25N 28°08' W 015°25'0 0.0
2017-Sep-20 14:55N 28°08' W 015°25'0 0.0
2017-Sep-20 13:58N 28°08' W 015°25'0 0.0
2017-Sep-20 13:28N 28°08' W 015°25'0 0.0
2017-Sep-20 13:01N 28°08' W 015°25'1 2.4
2017-Sep-20 12:31N 28°07' W 015°24'0 0.1
2017-Sep-20 12:00N 28°07' W 015°24'0 0.0
2017-Sep-20 11:21N 28°07' W 015°24'0 0.0
2017-Sep-20 10:51N 28°07' W 015°24'0 0.0
2017-Sep-20 10:21N 28°07' W 015°24'0 0.0
2017-Sep-20 09:54N 28°07' W 015°24'0 0.0
2017-Sep-20 09:24N 28°07' W 015°24'0 0.0
2017-Sep-20 08:54N 28°07' W 015°24'0 0.0
2017-Sep-20 08:24N 28°07' W 015°24'0 0.0
2017-Sep-20 07:54N 28°07' W 015°24'0 0.0
2017-Sep-20 07:27N 28°07' W 015°24'0 0.0
2017-Sep-20 06:57N 28°07' W 015°24'0 0.0
2017-Sep-20 06:27N 28°07' W 015°24'0 0.0
2017-Sep-20 05:57N 28°07' W 015°24'0 0.1
2017-Sep-20 05:25N 28°07' W 015°24'3 6.8
2017-Sep-20 05:00N 28°05' W 015°22'510.9
2017-Sep-20 04:30N 28°01' W 015°19'510.1
2017-Sep-20 04:00N 27°56' W 015°18'5 9.1
2017-Sep-20 03:30N 27°51' W 015°19'11 9.8
2017-Sep-20 02:21N 27°42' W 015°27'510.0
2017-Sep-20 01:50N 27°38' W 015°31'5 9.8
2017-Sep-20 01:22N 27°35' W 015°34'510.3
2017-Sep-20 00:53N 27°31' W 015°37'410.7
2017-Sep-20 00:31N 27°28' W 015°40'510.8
2017-Sep-20 00:01N 27°24' W 015°44'710.7
2017-Sep-19 23:19N 27°18' W 015°49'1211.2
2017-Sep-19 22:15N 27°09' W 015°58'  
Track history (hours):
 
Tides and Currents Weather Stations Pressure Air Temp Water Temp Dewpoint Dewpoint Depression Visibility Wind Speed Wind Dir Waves Ship Positions

Lagoa

Last reported at 2017-Sep-25 03:16 UTC. Time now 2017-Sep-25 06:31 UTC.
Position N 31°44' W 013°47'.

Length 100 m; draft 4.9 m.

Type: Ship. MMSI: 255802850.

Date/timePositionNaut miles runAvg speedWind from/ knotsBaromVisibWave heightAir tempDewpointWater temp
2017-Sep-25 03:16N 31°44' W 013°47'414.1
2017-Sep-25 03:00N 31°40' W 013°49'1914.0
2017-Sep-25 01:41N 31°24' W 013°59'4213.9
2017-Sep-24 22:42N 30°47' W 014°22'313.6
2017-Sep-24 22:29N 30°45' W 014°23'7113.7
2017-Sep-24 17:17N 29°42' W 015°01'414.0
2017-Sep-24 17:00N 29°38' W 015°03'1114.0
2017-Sep-24 16:15N 29°29' W 015°09'313.9
2017-Sep-24 16:00N 29°26' W 015°10'713.9
2017-Sep-24 15:30N 29°19' W 015°14'713.9
2017-Sep-24 15:00N 29°13' W 015°18'714.1
2017-Sep-24 14:30N 29°07' W 015°22'714.0
2017-Sep-24 14:00N 29°01' W 015°26'1614.1
2017-Sep-24 12:54N 28°47' W 015°34'514.1
2017-Sep-24 12:30N 28°42' W 015°37'714.0
2017-Sep-24 12:00N 28°36' W 015°40'713.6
2017-Sep-24 11:30N 28°31' W 015°45'713.6
2017-Sep-24 11:00N 28°25' W 015°50'713.3
2017-Sep-24 10:30N 28°20' W 015°55'1012.8
2017-Sep-24 09:42N 28°12' W 016°02'413.0
2017-Sep-24 09:25N 28°10' W 016°05'712.6
2017-Sep-24 08:54N 28°05' W 016°10'812.1
2017-Sep-24 08:13N 27°58' W 016°15'412.0
2017-Sep-24 07:54N 27°54' W 016°16'611.7
2017-Sep-24 07:24N 27°48' W 016°18'611.4
2017-Sep-24 06:53N 27°42' W 016°19'611.3
2017-Sep-24 06:21N 27°37' W 016°20'611.2
2017-Sep-24 05:47N 27°30' W 016°22'1011.3
2017-Sep-24 04:52N 27°20' W 016°25'511.1
2017-Sep-24 04:23N 27°15' W 016°26'  
2017-Sep-21 00:03N 27°47' W 015°19'114.5
2017-Sep-20 23:59N 27°47' W 015°19'714.6
2017-Sep-20 23:30N 27°54' W 015°18'714.4
2017-Sep-20 23:00N 28°01' W 015°19'713.9
2017-Sep-20 22:30N 28°07' W 015°24'1 2.4
2017-Sep-20 21:58N 28°08' W 015°25'0 0.0
2017-Sep-20 21:19N 28°08' W 015°25'0 0.0
2017-Sep-20 20:49N 28°08' W 015°25'0 0.0
2017-Sep-20 20:19N 28°08' W 015°25'0 0.0
2017-Sep-20 19:52N 28°08' W 015°25'0 0.0
2017-Sep-20 19:22N 28°08' W 015°25'0 0.0
2017-Sep-20 18:52N 28°08' W 015°25'0 0.0
2017-Sep-20 18:22N 28°08' W 015°25'0 0.0
2017-Sep-20 17:52N 28°08' W 015°25'0 0.0
2017-Sep-20 17:10N 28°08' W 015°25'0 0.0
2017-Sep-20 16:55N 28°08' W 015°25'0 0.0
2017-Sep-20 16:25N 28°08' W 015°25'0 0.0
2017-Sep-20 15:55N 28°08' W 015°25'0 0.0
2017-Sep-20 15:25N 28°08' W 015°25'0 0.0
2017-Sep-20 14:55N 28°08' W 015°25'0 0.0
2017-Sep-20 13:58N 28°08' W 015°25'0 0.0
2017-Sep-20 13:28N 28°08' W 015°25'0 0.0
2017-Sep-20 13:01N 28°08' W 015°25'1 2.4
2017-Sep-20 12:31N 28°07' W 015°24'0 0.1
2017-Sep-20 12:00N 28°07' W 015°24'0 0.0
2017-Sep-20 11:21N 28°07' W 015°24'0 0.0
2017-Sep-20 10:51N 28°07' W 015°24'0 0.0
2017-Sep-20 10:21N 28°07' W 015°24'0 0.0
2017-Sep-20 09:54N 28°07' W 015°24'0 0.0
2017-Sep-20 09:24N 28°07' W 015°24'0 0.0
2017-Sep-20 08:54N 28°07' W 015°24'0 0.0
2017-Sep-20 08:24N 28°07' W 015°24'0 0.0
2017-Sep-20 07:54N 28°07' W 015°24'0 0.0
2017-Sep-20 07:27N 28°07' W 015°24'0 0.0
2017-Sep-20 06:57N 28°07' W 015°24'0 0.0
2017-Sep-20 06:27N 28°07' W 015°24'0 0.0
2017-Sep-20 05:57N 28°07' W 015°24'0 0.1
2017-Sep-20 05:25N 28°07' W 015°24'3 6.8
2017-Sep-20 05:00N 28°05' W 015°22'510.9
2017-Sep-20 04:30N 28°01' W 015°19'510.1
2017-Sep-20 04:00N 27°56' W 015°18'5 9.1
2017-Sep-20 03:30N 27°51' W 015°19'11 9.8
2017-Sep-20 02:21N 27°42' W 015°27'510.0
2017-Sep-20 01:50N 27°38' W 015°31'5 9.8
2017-Sep-20 01:22N 27°35' W 015°34'510.3
2017-Sep-20 00:53N 27°31' W 015°37'410.7
2017-Sep-20 00:31N 27°28' W 015°40'510.8
2017-Sep-20 00:01N 27°24' W 015°44'710.7
2017-Sep-19 23:19N 27°18' W 015°49'1211.2
2017-Sep-19 22:15N 27°09' W 015°58'  

Dump ship's entire track history